sensor_id;sensor_type;location;lat;lon;timestamp;P1;durP1;ratioP1;P2;durP2;ratioP2
71896;SDS011;59767;51.344;12.362;2023-06-26T00:01:23;6.93;;;3.72;;
71896;SDS011;59767;51.344;12.362;2023-06-26T00:04:27;7.80;;;4.03;;
71896;SDS011;59767;51.344;12.362;2023-06-26T00:07:31;8.77;;;3.88;;
71896;SDS011;59767;51.344;12.362;2023-06-26T00:10:38;7.05;;;3.63;;
71896;SDS011;59767;51.344;12.362;2023-06-26T00:13:43;8.02;;;3.63;;
71896;SDS011;59767;51.344;12.362;2023-06-26T00:16:47;6.43;;;3.97;;
71896;SDS011;59767;51.344;12.362;2023-06-26T00:19:55;7.20;;;3.90;;
71896;SDS011;59767;51.344;12.362;2023-06-26T00:22:59;10.80;;;4.28;;
71896;SDS011;59767;51.344;12.362;2023-06-26T00:26:04;8.60;;;4.03;;
71896;SDS011;59767;51.344;12.362;2023-06-26T00:29:07;7.72;;;4.00;;
71896;SDS011;59767;51.344;12.362;2023-06-26T00:32:11;7.25;;;4.07;;
71896;SDS011;59767;51.344;12.362;2023-06-26T00:35:16;7.65;;;4.15;;
71896;SDS011;59767;51.344;12.362;2023-06-26T00:38:20;7.70;;;4.05;;
71896;SDS011;59767;51.344;12.362;2023-06-26T00:41:24;8.68;;;4.00;;
71896;SDS011;59767;51.344;12.362;2023-06-26T00:44:28;7.53;;;4.28;;
71896;SDS011;59767;51.344;12.362;2023-06-26T00:47:32;9.90;;;4.20;;
71896;SDS011;59767;51.344;12.362;2023-06-26T00:50:37;8.52;;;4.40;;
71896;SDS011;59767;51.344;12.362;2023-06-26T00:53:42;8.48;;;4.07;;
71896;SDS011;59767;51.344;12.362;2023-06-26T00:56:46;8.63;;;4.68;;
71896;SDS011;59767;51.344;12.362;2023-06-26T00:59:51;11.15;;;4.30;;
71896;SDS011;59767;51.344;12.362;2023-06-26T01:02:55;9.13;;;4.63;;
71896;SDS011;59767;51.344;12.362;2023-06-26T01:06:03;8.63;;;4.25;;
71896;SDS011;59767;51.344;12.362;2023-06-26T01:09:08;10.07;;;4.32;;
71896;SDS011;59767;51.344;12.362;2023-06-26T01:12:12;8.05;;;4.30;;
71896;SDS011;59767;51.344;12.362;2023-06-26T01:15:16;13.57;;;4.35;;
71896;SDS011;59767;51.344;12.362;2023-06-26T01:18:20;8.70;;;4.35;;
71896;SDS011;59767;51.344;12.362;2023-06-26T01:21:25;8.20;;;4.50;;
71896;SDS011;59767;51.344;12.362;2023-06-26T01:24:36;10.75;;;4.28;;
71896;SDS011;59767;51.344;12.362;2023-06-26T01:27:43;7.18;;;4.18;;
71896;SDS011;59767;51.344;12.362;2023-06-26T01:30:49;14.18;;;4.80;;
71896;SDS011;59767;51.344;12.362;2023-06-26T01:33:55;8.80;;;4.72;;
71896;SDS011;59767;51.344;12.362;2023-06-26T01:37:01;10.30;;;4.63;;
71896;SDS011;59767;51.344;12.362;2023-06-26T01:40:06;7.97;;;4.25;;
71896;SDS011;59767;51.344;12.362;2023-06-26T01:46:42;9.07;;;4.28;;
71896;SDS011;59767;51.344;12.362;2023-06-26T01:50:11;8.15;;;4.75;;
71896;SDS011;59767;51.344;12.362;2023-06-26T01:53:19;9.95;;;4.38;;
71896;SDS011;59767;51.344;12.362;2023-06-26T01:56:28;9.98;;;4.47;;
71896;SDS011;59767;51.344;12.362;2023-06-26T01:59:33;8.65;;;4.50;;
71896;SDS011;59767;51.344;12.362;2023-06-26T02:02:37;8.40;;;4.80;;
71896;SDS011;59767;51.344;12.362;2023-06-26T02:05:41;9.32;;;4.47;;
71896;SDS011;59767;51.344;12.362;2023-06-26T02:08:46;7.88;;;4.40;;
71896;SDS011;59767;51.344;12.362;2023-06-26T02:11:50;9.10;;;4.57;;
71896;SDS011;59767;51.344;12.362;2023-06-26T02:14:54;11.13;;;4.50;;
71896;SDS011;59767;51.344;12.362;2023-06-26T02:17:58;11.52;;;4.50;;
71896;SDS011;59767;51.344;12.362;2023-06-26T02:21:03;11.90;;;4.43;;
71896;SDS011;59767;51.344;12.362;2023-06-26T02:24:08;9.40;;;4.95;;
71896;SDS011;59767;51.344;12.362;2023-06-26T02:27:12;9.55;;;4.72;;
71896;SDS011;59767;51.344;12.362;2023-06-26T02:30:17;11.63;;;4.45;;
71896;SDS011;59767;51.344;12.362;2023-06-26T02:33:21;8.68;;;4.75;;
71896;SDS011;59767;51.344;12.362;2023-06-26T02:36:25;8.70;;;5.05;;
71896;SDS011;59767;51.344;12.362;2023-06-26T02:39:29;7.78;;;4.65;;
71896;SDS011;59767;51.344;12.362;2023-06-26T02:42:34;11.57;;;5.55;;
71896;SDS011;59767;51.344;12.362;2023-06-26T02:45:38;9.10;;;4.45;;
71896;SDS011;59767;51.344;12.362;2023-06-26T02:48:43;12.10;;;5.07;;
71896;SDS011;59767;51.344;12.362;2023-06-26T02:51:47;7.53;;;4.30;;
71896;SDS011;59767;51.344;12.362;2023-06-26T02:54:51;10.88;;;4.72;;
71896;SDS011;59767;51.344;12.362;2023-06-26T02:57:55;9.85;;;5.13;;
71896;SDS011;59767;51.344;12.362;2023-06-26T03:00:59;9.85;;;4.85;;
71896;SDS011;59767;51.344;12.362;2023-06-26T03:04:03;9.80;;;5.47;;
71896;SDS011;59767;51.344;12.362;2023-06-26T03:07:08;10.93;;;5.00;;
71896;SDS011;59767;51.344;12.362;2023-06-26T03:10:13;10.90;;;4.93;;
71896;SDS011;59767;51.344;12.362;2023-06-26T03:13:17;9.90;;;5.22;;
71896;SDS011;59767;51.344;12.362;2023-06-26T03:16:22;14.68;;;5.32;;
71896;SDS011;59767;51.344;12.362;2023-06-26T03:19:25;13.98;;;5.20;;
71896;SDS011;59767;51.344;12.362;2023-06-26T03:22:29;11.20;;;5.70;;
71896;SDS011;59767;51.344;12.362;2023-06-26T03:25:33;9.25;;;4.78;;
71896;SDS011;59767;51.344;12.362;2023-06-26T03:28:37;10.85;;;5.43;;
71896;SDS011;59767;51.344;12.362;2023-06-26T03:31:41;13.27;;;5.22;;
71896;SDS011;59767;51.344;12.362;2023-06-26T03:34:46;13.27;;;5.43;;
71896;SDS011;59767;51.344;12.362;2023-06-26T03:37:50;13.13;;;5.38;;
71896;SDS011;59767;51.344;12.362;2023-06-26T03:40:54;10.25;;;5.40;;
71896;SDS011;59767;51.344;12.362;2023-06-26T03:43:58;12.88;;;5.85;;
71896;SDS011;59767;51.344;12.362;2023-06-26T03:47:03;11.52;;;5.60;;
71896;SDS011;59767;51.344;12.362;2023-06-26T03:50:08;12.88;;;5.68;;
71896;SDS011;59767;51.344;12.362;2023-06-26T03:53:12;13.68;;;5.85;;
71896;SDS011;59767;51.344;12.362;2023-06-26T03:56:17;12.75;;;5.82;;
71896;SDS011;59767;51.344;12.362;2023-06-26T03:59:20;10.35;;;6.03;;
71896;SDS011;59767;51.344;12.362;2023-06-26T04:02:24;13.07;;;5.55;;
71896;SDS011;59767;51.344;12.362;2023-06-26T04:05:28;10.85;;;5.32;;
71896;SDS011;59767;51.344;12.362;2023-06-26T04:08:32;9.85;;;5.90;;
71896;SDS011;59767;51.344;12.362;2023-06-26T04:11:36;9.32;;;5.25;;
71896;SDS011;59767;51.344;12.362;2023-06-26T04:14:41;11.35;;;4.97;;
71896;SDS011;59767;51.344;12.362;2023-06-26T04:17:47;14.13;;;5.55;;
71896;SDS011;59767;51.344;12.362;2023-06-26T04:21:05;9.32;;;5.25;;
71896;SDS011;59767;51.344;12.362;2023-06-26T04:24:15;10.63;;;5.47;;
71896;SDS011;59767;51.344;12.362;2023-06-26T04:27:19;10.35;;;5.15;;
71896;SDS011;59767;51.344;12.362;2023-06-26T04:30:23;12.70;;;4.97;;
71896;SDS011;59767;51.344;12.362;2023-06-26T04:33:27;10.77;;;5.38;;
71896;SDS011;59767;51.344;12.362;2023-06-26T04:36:31;12.30;;;5.20;;
71896;SDS011;59767;51.344;12.362;2023-06-26T04:39:37;12.48;;;5.45;;
71896;SDS011;59767;51.344;12.362;2023-06-26T04:42:41;10.65;;;5.30;;
71896;SDS011;59767;51.344;12.362;2023-06-26T04:45:45;9.05;;;5.32;;
71896;SDS011;59767;51.344;12.362;2023-06-26T04:48:49;10.27;;;5.03;;
71896;SDS011;59767;51.344;12.362;2023-06-26T04:51:54;11.32;;;5.22;;
71896;SDS011;59767;51.344;12.362;2023-06-26T04:54:58;9.85;;;4.97;;
71896;SDS011;59767;51.344;12.362;2023-06-26T04:58:02;9.60;;;4.90;;
71896;SDS011;59767;51.344;12.362;2023-06-26T05:01:06;9.18;;;4.82;;
71896;SDS011;59767;51.344;12.362;2023-06-26T05:04:10;11.75;;;5.00;;
71896;SDS011;59767;51.344;12.362;2023-06-26T05:07:14;11.52;;;5.15;;
71896;SDS011;59767;51.344;12.362;2023-06-26T05:10:19;11.15;;;5.50;;
71896;SDS011;59767;51.344;12.362;2023-06-26T05:13:23;10.48;;;4.97;;
71896;SDS011;59767;51.344;12.362;2023-06-26T05:16:27;10.95;;;4.90;;
71896;SDS011;59767;51.344;12.362;2023-06-26T05:19:32;10.52;;;4.97;;
71896;SDS011;59767;51.344;12.362;2023-06-26T05:22:35;9.50;;;5.18;;
71896;SDS011;59767;51.344;12.362;2023-06-26T05:25:42;12.15;;;4.97;;
71896;SDS011;59767;51.344;12.362;2023-06-26T05:28:46;10.60;;;4.88;;
71896;SDS011;59767;51.344;12.362;2023-06-26T05:31:52;11.57;;;5.07;;
71896;SDS011;59767;51.344;12.362;2023-06-26T05:34:57;11.32;;;4.72;;
71896;SDS011;59767;51.344;12.362;2023-06-26T05:38:02;11.18;;;5.18;;
71896;SDS011;59767;51.344;12.362;2023-06-26T05:41:07;14.15;;;5.45;;
71896;SDS011;59767;51.344;12.362;2023-06-26T05:44:11;8.95;;;4.70;;
71896;SDS011;59767;51.344;12.362;2023-06-26T05:47:15;14.23;;;5.43;;
71896;SDS011;59767;51.344;12.362;2023-06-26T05:50:20;10.75;;;5.22;;
71896;SDS011;59767;51.344;12.362;2023-06-26T05:53:24;13.15;;;5.00;;
71896;SDS011;59767;51.344;12.362;2023-06-26T05:56:29;9.48;;;4.88;;
71896;SDS011;59767;51.344;12.362;2023-06-26T05:59:34;11.40;;;4.75;;
71896;SDS011;59767;51.344;12.362;2023-06-26T06:02:41;11.55;;;5.30;;
71896;SDS011;59767;51.344;12.362;2023-06-26T06:05:46;10.65;;;5.15;;
71896;SDS011;59767;51.344;12.362;2023-06-26T06:08:50;11.07;;;4.85;;
71896;SDS011;59767;51.344;12.362;2023-06-26T06:11:54;15.40;;;5.38;;
71896;SDS011;59767;51.344;12.362;2023-06-26T06:14:58;11.82;;;5.40;;
71896;SDS011;59767;51.344;12.362;2023-06-26T06:18:03;9.82;;;4.70;;
71896;SDS011;59767;51.344;12.362;2023-06-26T06:21:07;15.48;;;5.50;;
71896;SDS011;59767;51.344;12.362;2023-06-26T06:24:11;10.15;;;5.40;;
71896;SDS011;59767;51.344;12.362;2023-06-26T06:27:15;10.60;;;5.13;;
71896;SDS011;59767;51.344;12.362;2023-06-26T06:30:19;9.45;;;5.10;;
71896;SDS011;59767;51.344;12.362;2023-06-26T06:33:43;12.30;;;5.05;;
71896;SDS011;59767;51.344;12.362;2023-06-26T06:36:48;14.55;;;5.60;;
71896;SDS011;59767;51.344;12.362;2023-06-26T06:39:53;15.43;;;5.47;;
71896;SDS011;59767;51.344;12.362;2023-06-26T06:42:57;13.57;;;5.88;;
71896;SDS011;59767;51.344;12.362;2023-06-26T06:46:02;16.05;;;5.60;;
71896;SDS011;59767;51.344;12.362;2023-06-26T06:49:06;13.25;;;5.60;;
71896;SDS011;59767;51.344;12.362;2023-06-26T06:52:12;12.10;;;5.20;;
71896;SDS011;59767;51.344;12.362;2023-06-26T06:55:16;10.27;;;5.10;;
71896;SDS011;59767;51.344;12.362;2023-06-26T06:58:20;11.20;;;5.25;;
71896;SDS011;59767;51.344;12.362;2023-06-26T07:01:24;12.15;;;4.90;;
71896;SDS011;59767;51.344;12.362;2023-06-26T07:04:28;13.65;;;5.05;;
71896;SDS011;59767;51.344;12.362;2023-06-26T07:07:33;12.85;;;5.18;;
71896;SDS011;59767;51.344;12.362;2023-06-26T07:10:38;10.85;;;5.22;;
71896;SDS011;59767;51.344;12.362;2023-06-26T07:13:44;16.67;;;7.53;;
71896;SDS011;59767;51.344;12.362;2023-06-26T07:16:51;13.55;;;5.82;;
71896;SDS011;59767;51.344;12.362;2023-06-26T07:19:55;13.95;;;5.35;;
71896;SDS011;59767;51.344;12.362;2023-06-26T07:22:59;15.60;;;5.50;;
71896;SDS011;59767;51.344;12.362;2023-06-26T07:26:03;11.32;;;5.47;;
71896;SDS011;59767;51.344;12.362;2023-06-26T07:29:07;15.48;;;5.53;;
71896;SDS011;59767;51.344;12.362;2023-06-26T07:32:11;16.65;;;5.55;;
71896;SDS011;59767;51.344;12.362;2023-06-26T07:35:18;17.27;;;5.05;;
71896;SDS011;59767;51.344;12.362;2023-06-26T07:38:22;13.95;;;5.05;;
71896;SDS011;59767;51.344;12.362;2023-06-26T07:41:26;13.95;;;5.30;;
71896;SDS011;59767;51.344;12.362;2023-06-26T07:44:32;14.48;;;5.35;;
71896;SDS011;59767;51.344;12.362;2023-06-26T07:47:37;13.45;;;5.47;;
71896;SDS011;59767;51.344;12.362;2023-06-26T07:50:42;12.45;;;4.90;;
71896;SDS011;59767;51.344;12.362;2023-06-26T07:53:46;10.00;;;5.60;;
71896;SDS011;59767;51.344;12.362;2023-06-26T07:56:54;12.38;;;4.88;;
71896;SDS011;59767;51.344;12.362;2023-06-26T08:00:02;7.40;;;4.60;;
71896;SDS011;59767;51.344;12.362;2023-06-26T08:03:10;11.05;;;5.05;;
71896;SDS011;59767;51.344;12.362;2023-06-26T08:06:28;10.80;;;5.20;;
71896;SDS011;59767;51.344;12.362;2023-06-26T08:09:32;9.30;;;4.80;;
71896;SDS011;59767;51.344;12.362;2023-06-26T08:12:37;12.10;;;5.68;;
71896;SDS011;59767;51.344;12.362;2023-06-26T08:15:44;13.27;;;5.03;;
71896;SDS011;59767;51.344;12.362;2023-06-26T08:18:49;11.95;;;5.00;;
71896;SDS011;59767;51.344;12.362;2023-06-26T08:21:53;8.13;;;5.03;;
71896;SDS011;59767;51.344;12.362;2023-06-26T08:24:57;11.35;;;4.90;;
71896;SDS011;59767;51.344;12.362;2023-06-26T08:28:01;13.68;;;4.63;;
71896;SDS011;59767;51.344;12.362;2023-06-26T08:31:05;14.23;;;5.00;;
71896;SDS011;59767;51.344;12.362;2023-06-26T08:34:09;10.27;;;4.72;;
71896;SDS011;59767;51.344;12.362;2023-06-26T08:37:14;16.45;;;5.20;;
71896;SDS011;59767;51.344;12.362;2023-06-26T08:40:18;11.30;;;5.93;;
71896;SDS011;59767;51.344;12.362;2023-06-26T08:43:23;16.38;;;4.90;;
71896;SDS011;59767;51.344;12.362;2023-06-26T08:46:28;12.75;;;4.88;;
71896;SDS011;59767;51.344;12.362;2023-06-26T08:53:21;11.20;;;4.88;;
71896;SDS011;59767;51.344;12.362;2023-06-26T08:56:36;14.73;;;4.72;;
71896;SDS011;59767;51.344;12.362;2023-06-26T08:59:45;8.73;;;4.70;;
71896;SDS011;59767;51.344;12.362;2023-06-26T09:02:50;16.83;;;6.93;;
71896;SDS011;59767;51.344;12.362;2023-06-26T09:05:55;10.90;;;4.72;;
71896;SDS011;59767;51.344;12.362;2023-06-26T09:08:59;13.40;;;4.57;;
71896;SDS011;59767;51.344;12.362;2023-06-26T09:12:03;8.30;;;4.47;;
71896;SDS011;59767;51.344;12.362;2023-06-26T09:15:07;13.68;;;4.68;;
71896;SDS011;59767;51.344;12.362;2023-06-26T09:18:12;13.90;;;4.70;;
71896;SDS011;59767;51.344;12.362;2023-06-26T09:21:17;10.02;;;4.10;;
71896;SDS011;59767;51.344;12.362;2023-06-26T09:24:22;8.30;;;4.32;;
71896;SDS011;59767;51.344;12.362;2023-06-26T09:27:26;7.32;;;4.45;;
71896;SDS011;59767;51.344;12.362;2023-06-26T09:30:33;19.75;;;5.20;;
71896;SDS011;59767;51.344;12.362;2023-06-26T09:33:38;13.18;;;4.70;;
71896;SDS011;59767;51.344;12.362;2023-06-26T09:36:42;11.77;;;4.82;;
71896;SDS011;59767;51.344;12.362;2023-06-26T09:39:51;8.43;;;4.50;;
71896;SDS011;59767;51.344;12.362;2023-06-26T09:43:02;10.45;;;4.30;;
71896;SDS011;59767;51.344;12.362;2023-06-26T09:46:07;13.10;;;4.85;;
71896;SDS011;59767;51.344;12.362;2023-06-26T09:49:12;12.60;;;4.97;;
71896;SDS011;59767;51.344;12.362;2023-06-26T09:52:16;11.55;;;4.70;;
71896;SDS011;59767;51.344;12.362;2023-06-26T09:55:21;10.20;;;4.45;;
71896;SDS011;59767;51.344;12.362;2023-06-26T09:58:26;11.60;;;4.60;;
71896;SDS011;59767;51.344;12.362;2023-06-26T10:01:32;7.50;;;4.50;;
71896;SDS011;59767;51.344;12.362;2023-06-26T10:04:37;8.43;;;4.35;;
71896;SDS011;59767;51.344;12.362;2023-06-26T10:07:42;12.93;;;5.22;;
71896;SDS011;59767;51.344;12.362;2023-06-26T10:10:46;16.13;;;5.65;;
71896;SDS011;59767;51.344;12.362;2023-06-26T10:13:52;15.45;;;4.82;;
71896;SDS011;59767;51.344;12.362;2023-06-26T10:17:19;14.52;;;6.53;;
71896;SDS011;59767;51.344;12.362;2023-06-26T10:20:27;7.65;;;4.40;;
71896;SDS011;59767;51.344;12.362;2023-06-26T10:23:31;12.05;;;5.10;;
71896;SDS011;59767;51.344;12.362;2023-06-26T10:26:38;10.48;;;4.35;;
71896;SDS011;59767;51.344;12.362;2023-06-26T10:29:52;12.18;;;5.30;;
71896;SDS011;59767;51.344;12.362;2023-06-26T10:32:58;10.25;;;5.15;;
71896;SDS011;59767;51.344;12.362;2023-06-26T10:36:14;9.10;;;4.90;;
71896;SDS011;59767;51.344;12.362;2023-06-26T10:39:22;8.63;;;4.85;;
71896;SDS011;59767;51.344;12.362;2023-06-26T10:42:44;8.57;;;5.05;;
71896;SDS011;59767;51.344;12.362;2023-06-26T10:45:48;9.68;;;4.70;;
71896;SDS011;59767;51.344;12.362;2023-06-26T10:49:01;11.68;;;6.63;;
71896;SDS011;59767;51.344;12.362;2023-06-26T10:52:05;9.48;;;4.95;;
71896;SDS011;59767;51.344;12.362;2023-06-26T10:55:09;8.82;;;5.28;;
71896;SDS011;59767;51.344;12.362;2023-06-26T11:02:03;11.40;;;4.70;;
71896;SDS011;59767;51.344;12.362;2023-06-26T11:05:23;10.48;;;5.00;;
71896;SDS011;59767;51.344;12.362;2023-06-26T11:11:58;11.32;;;4.95;;
71896;SDS011;59767;51.344;12.362;2023-06-26T11:15:09;15.60;;;5.05;;
71896;SDS011;59767;51.344;12.362;2023-06-26T11:18:17;10.00;;;4.53;;
71896;SDS011;59767;51.344;12.362;2023-06-26T11:21:24;8.98;;;5.47;;
71896;SDS011;59767;51.344;12.362;2023-06-26T11:24:28;9.40;;;4.43;;
71896;SDS011;59767;51.344;12.362;2023-06-26T11:27:43;11.82;;;4.07;;
71896;SDS011;59767;51.344;12.362;2023-06-26T11:30:48;7.63;;;4.50;;
71896;SDS011;59767;51.344;12.362;2023-06-26T11:33:53;8.20;;;4.22;;
71896;SDS011;59767;51.344;12.362;2023-06-26T11:36:58;7.72;;;4.35;;
71896;SDS011;59767;51.344;12.362;2023-06-26T11:40:20;7.25;;;4.18;;
71896;SDS011;59767;51.344;12.362;2023-06-26T11:43:25;7.35;;;4.35;;
71896;SDS011;59767;51.344;12.362;2023-06-26T11:46:29;9.05;;;4.25;;
71896;SDS011;59767;51.344;12.362;2023-06-26T11:49:34;8.10;;;4.20;;
71896;SDS011;59767;51.344;12.362;2023-06-26T11:52:41;11.05;;;4.20;;
71896;SDS011;59767;51.344;12.362;2023-06-26T11:55:45;8.27;;;4.15;;
71896;SDS011;59767;51.344;12.362;2023-06-26T11:59:05;7.95;;;4.45;;
71896;SDS011;59767;51.344;12.362;2023-06-26T12:02:14;9.88;;;4.75;;
71896;SDS011;59767;51.344;12.362;2023-06-26T12:05:19;8.32;;;4.20;;
71896;SDS011;59767;51.344;12.362;2023-06-26T12:08:24;10.98;;;4.50;;
71896;SDS011;59767;51.344;12.362;2023-06-26T12:11:28;12.90;;;4.53;;
71896;SDS011;59767;51.344;12.362;2023-06-26T12:14:34;8.07;;;4.32;;
71896;SDS011;59767;51.344;12.362;2023-06-26T12:17:39;8.95;;;3.83;;
71896;SDS011;59767;51.344;12.362;2023-06-26T12:20:43;11.57;;;4.10;;
71896;SDS011;59767;51.344;12.362;2023-06-26T12:23:48;7.15;;;4.00;;
71896;SDS011;59767;51.344;12.362;2023-06-26T12:26:53;8.50;;;4.53;;
71896;SDS011;59767;51.344;12.362;2023-06-26T12:30:03;9.77;;;4.30;;
71896;SDS011;59767;51.344;12.362;2023-06-26T12:33:12;9.30;;;4.20;;
71896;SDS011;59767;51.344;12.362;2023-06-26T12:36:17;9.10;;;4.40;;
71896;SDS011;59767;51.344;12.362;2023-06-26T12:39:21;8.80;;;4.18;;
71896;SDS011;59767;51.344;12.362;2023-06-26T12:42:26;10.25;;;4.20;;
71896;SDS011;59767;51.344;12.362;2023-06-26T12:45:38;8.63;;;4.20;;
71896;SDS011;59767;51.344;12.362;2023-06-26T12:48:44;11.30;;;4.40;;
71896;SDS011;59767;51.344;12.362;2023-06-26T12:51:50;7.60;;;4.40;;
71896;SDS011;59767;51.344;12.362;2023-06-26T12:54:55;9.45;;;4.72;;
71896;SDS011;59767;51.344;12.362;2023-06-26T12:58:00;7.85;;;4.43;;
71896;SDS011;59767;51.344;12.362;2023-06-26T13:01:05;9.00;;;5.35;;
71896;SDS011;59767;51.344;12.362;2023-06-26T13:04:18;9.98;;;4.82;;
71896;SDS011;59767;51.344;12.362;2023-06-26T13:07:23;8.15;;;4.20;;
71896;SDS011;59767;51.344;12.362;2023-06-26T13:10:29;8.90;;;4.22;;
71896;SDS011;59767;51.344;12.362;2023-06-26T13:13:34;8.43;;;4.20;;
71896;SDS011;59767;51.344;12.362;2023-06-26T13:16:38;9.80;;;4.15;;
71896;SDS011;59767;51.344;12.362;2023-06-26T13:19:44;7.80;;;4.35;;
71896;SDS011;59767;51.344;12.362;2023-06-26T13:22:48;10.40;;;4.30;;
71896;SDS011;59767;51.344;12.362;2023-06-26T13:25:52;9.70;;;4.03;;
71896;SDS011;59767;51.344;12.362;2023-06-26T13:28:57;6.97;;;4.18;;
71896;SDS011;59767;51.344;12.362;2023-06-26T13:32:02;9.18;;;4.50;;
71896;SDS011;59767;51.344;12.362;2023-06-26T13:35:07;11.20;;;4.63;;
71896;SDS011;59767;51.344;12.362;2023-06-26T13:38:13;10.32;;;4.55;;
71896;SDS011;59767;51.344;12.362;2023-06-26T13:41:17;13.77;;;4.72;;
71896;SDS011;59767;51.344;12.362;2023-06-26T13:44:23;12.07;;;5.07;;
71896;SDS011;59767;51.344;12.362;2023-06-26T13:47:44;11.18;;;4.30;;
71896;SDS011;59767;51.344;12.362;2023-06-26T13:50:48;6.90;;;4.20;;
71896;SDS011;59767;51.344;12.362;2023-06-26T13:53:57;8.25;;;3.95;;
71896;SDS011;59767;51.344;12.362;2023-06-26T13:57:04;12.25;;;4.70;;
71896;SDS011;59767;51.344;12.362;2023-06-26T14:00:09;11.27;;;4.15;;
71896;SDS011;59767;51.344;12.362;2023-06-26T14:03:15;9.07;;;4.65;;
71896;SDS011;59767;51.344;12.362;2023-06-26T14:06:19;15.20;;;4.68;;
71896;SDS011;59767;51.344;12.362;2023-06-26T14:09:23;26.45;;;6.30;;
71896;SDS011;59767;51.344;12.362;2023-06-26T14:12:28;26.90;;;6.65;;
71896;SDS011;59767;51.344;12.362;2023-06-26T14:15:32;22.10;;;7.40;;
71896;SDS011;59767;51.344;12.362;2023-06-26T14:18:37;21.33;;;7.55;;
71896;SDS011;59767;51.344;12.362;2023-06-26T14:21:41;19.63;;;7.65;;
71896;SDS011;59767;51.344;12.362;2023-06-26T14:24:46;20.65;;;8.40;;
71896;SDS011;59767;51.344;12.362;2023-06-26T14:27:50;15.30;;;7.95;;
71896;SDS011;59767;51.344;12.362;2023-06-26T14:30:54;21.35;;;8.27;;
71896;SDS011;59767;51.344;12.362;2023-06-26T14:33:58;21.98;;;8.60;;
71896;SDS011;59767;51.344;12.362;2023-06-26T14:37:03;16.58;;;7.85;;
71896;SDS011;59767;51.344;12.362;2023-06-26T14:40:07;18.17;;;7.80;;
71896;SDS011;59767;51.344;12.362;2023-06-26T14:43:13;19.98;;;8.77;;
71896;SDS011;59767;51.344;12.362;2023-06-26T14:46:18;15.45;;;7.97;;
71896;SDS011;59767;51.344;12.362;2023-06-26T14:49:22;18.13;;;7.95;;
71896;SDS011;59767;51.344;12.362;2023-06-26T14:52:26;18.95;;;7.57;;
71896;SDS011;59767;51.344;12.362;2023-06-26T14:55:30;18.73;;;7.90;;
71896;SDS011;59767;51.344;12.362;2023-06-26T14:58:34;14.80;;;7.93;;
71896;SDS011;59767;51.344;12.362;2023-06-26T15:01:39;16.10;;;7.95;;
71896;SDS011;59767;51.344;12.362;2023-06-26T15:04:43;21.30;;;8.40;;
71896;SDS011;59767;51.344;12.362;2023-06-26T15:07:47;18.30;;;7.63;;
71896;SDS011;59767;51.344;12.362;2023-06-26T15:10:52;15.45;;;7.88;;
71896;SDS011;59767;51.344;12.362;2023-06-26T15:13:57;17.65;;;7.20;;
71896;SDS011;59767;51.344;12.362;2023-06-26T15:17:01;15.75;;;6.90;;
71896;SDS011;59767;51.344;12.362;2023-06-26T15:20:05;17.10;;;6.90;;
71896;SDS011;59767;51.344;12.362;2023-06-26T15:23:10;14.23;;;6.88;;
71896;SDS011;59767;51.344;12.362;2023-06-26T15:26:14;15.20;;;6.80;;
71896;SDS011;59767;51.344;12.362;2023-06-26T15:29:18;18.55;;;6.82;;
71896;SDS011;59767;51.344;12.362;2023-06-26T15:32:23;10.57;;;6.03;;
71896;SDS011;59767;51.344;12.362;2023-06-26T15:35:27;10.85;;;5.93;;
71896;SDS011;59767;51.344;12.362;2023-06-26T15:38:31;14.20;;;5.35;;
71896;SDS011;59767;51.344;12.362;2023-06-26T15:41:35;13.48;;;5.20;;
71896;SDS011;59767;51.344;12.362;2023-06-26T15:44:41;15.98;;;5.28;;
71896;SDS011;59767;51.344;12.362;2023-06-26T15:47:45;12.93;;;5.68;;
71896;SDS011;59767;51.344;12.362;2023-06-26T15:50:49;14.30;;;6.03;;
71896;SDS011;59767;51.344;12.362;2023-06-26T15:53:53;11.82;;;5.38;;
71896;SDS011;59767;51.344;12.362;2023-06-26T15:56:57;11.70;;;5.40;;
71896;SDS011;59767;51.344;12.362;2023-06-26T16:00:02;18.52;;;5.95;;
71896;SDS011;59767;51.344;12.362;2023-06-26T16:03:08;11.32;;;5.70;;
71896;SDS011;59767;51.344;12.362;2023-06-26T16:06:12;11.98;;;5.60;;
71896;SDS011;59767;51.344;12.362;2023-06-26T16:09:17;15.25;;;5.90;;
71896;SDS011;59767;51.344;12.362;2023-06-26T16:12:21;11.32;;;5.78;;
71896;SDS011;59767;51.344;12.362;2023-06-26T16:15:25;17.83;;;6.38;;
71896;SDS011;59767;51.344;12.362;2023-06-26T16:18:30;12.23;;;6.13;;
71896;SDS011;59767;51.344;12.362;2023-06-26T16:21:34;15.10;;;6.43;;
71896;SDS011;59767;51.344;12.362;2023-06-26T16:24:38;10.93;;;6.07;;
71896;SDS011;59767;51.344;12.362;2023-06-26T16:27:42;14.20;;;6.07;;
71896;SDS011;59767;51.344;12.362;2023-06-26T16:30:49;15.40;;;5.90;;
71896;SDS011;59767;51.344;12.362;2023-06-26T16:33:53;13.13;;;6.20;;
71896;SDS011;59767;51.344;12.362;2023-06-26T16:36:57;12.38;;;6.57;;
71896;SDS011;59767;51.344;12.362;2023-06-26T16:40:02;15.68;;;6.43;;
71896;SDS011;59767;51.344;12.362;2023-06-26T16:43:06;12.95;;;6.20;;
71896;SDS011;59767;51.344;12.362;2023-06-26T16:46:11;15.40;;;6.20;;
71896;SDS011;59767;51.344;12.362;2023-06-26T16:49:16;14.68;;;6.38;;
71896;SDS011;59767;51.344;12.362;2023-06-26T16:52:19;12.98;;;6.32;;
71896;SDS011;59767;51.344;12.362;2023-06-26T16:55:23;12.95;;;6.40;;
71896;SDS011;59767;51.344;12.362;2023-06-26T16:58:27;14.20;;;6.40;;
71896;SDS011;59767;51.344;12.362;2023-06-26T17:01:31;15.25;;;6.40;;
71896;SDS011;59767;51.344;12.362;2023-06-26T17:04:36;13.77;;;6.88;;
71896;SDS011;59767;51.344;12.362;2023-06-26T17:07:40;12.55;;;6.53;;
71896;SDS011;59767;51.344;12.362;2023-06-26T17:10:44;15.23;;;6.10;;
71896;SDS011;59767;51.344;12.362;2023-06-26T17:13:48;13.25;;;5.70;;
71896;SDS011;59767;51.344;12.362;2023-06-26T17:16:52;11.70;;;6.13;;
71896;SDS011;59767;51.344;12.362;2023-06-26T17:19:55;13.80;;;6.40;;
71896;SDS011;59767;51.344;12.362;2023-06-26T17:22:59;11.07;;;6.00;;
71896;SDS011;59767;51.344;12.362;2023-06-26T17:26:03;14.13;;;5.57;;
71896;SDS011;59767;51.344;12.362;2023-06-26T17:29:07;10.82;;;5.50;;
71896;SDS011;59767;51.344;12.362;2023-06-26T17:32:11;11.20;;;5.72;;
71896;SDS011;59767;51.344;12.362;2023-06-26T17:35:24;15.55;;;5.70;;
71896;SDS011;59767;51.344;12.362;2023-06-26T17:38:28;11.50;;;5.43;;
71896;SDS011;59767;51.344;12.362;2023-06-26T17:41:33;13.85;;;5.57;;
71896;SDS011;59767;51.344;12.362;2023-06-26T17:44:36;11.88;;;5.30;;
71896;SDS011;59767;51.344;12.362;2023-06-26T17:47:41;10.10;;;5.10;;
71896;SDS011;59767;51.344;12.362;2023-06-26T17:50:45;13.52;;;5.85;;
71896;SDS011;59767;51.344;12.362;2023-06-26T17:53:50;11.57;;;5.30;;
71896;SDS011;59767;51.344;12.362;2023-06-26T17:56:55;15.90;;;4.95;;
71896;SDS011;59767;51.344;12.362;2023-06-26T17:59:59;16.08;;;5.40;;
71896;SDS011;59767;51.344;12.362;2023-06-26T18:03:03;11.40;;;5.10;;
71896;SDS011;59767;51.344;12.362;2023-06-26T18:06:07;11.77;;;5.03;;
71896;SDS011;59767;51.344;12.362;2023-06-26T18:09:12;11.30;;;4.90;;
71896;SDS011;59767;51.344;12.362;2023-06-26T18:12:16;10.20;;;4.40;;
71896;SDS011;59767;51.344;12.362;2023-06-26T18:15:21;10.63;;;4.60;;
71896;SDS011;59767;51.344;12.362;2023-06-26T18:18:25;10.55;;;4.60;;
71896;SDS011;59767;51.344;12.362;2023-06-26T18:21:29;12.75;;;4.40;;
71896;SDS011;59767;51.344;12.362;2023-06-26T18:24:34;14.65;;;4.85;;